NCAR-RAP Real-Time Weather Data

Output produced by METARs form (21 May 2019  10:25 UTC)
found at http://weather.rap.ucar.edu/surface/
 
RORS 211000Z 02013KT 9999 SCT036 23/16 Q1009
RORS 210900Z 01013KT 9999 SCT034 25/17 Q1008
RORS 210800Z 01013KT 9999 SCT033 25/18 Q1008
RORS 210700Z 01015KT 9999 FEW028 SCT033 26/17 Q1009
RORS 210600Z 01014KT 9999 FEW029 26/18 Q1009
RORS 210500Z 02014KT 9999 FEW033 26/17 Q1009
RORS 210400Z 01016KT 9999 FEW033 26/17 Q1009
RORS 210300Z 01016KT 9999 FEW030 26/17 Q1010
RORS 210200Z 01018KT 9999 FEW032 25/16 Q1010
RORS 210100Z 01019KT 9999 FEW033 25/16 Q1010
RORS 210000Z 01019KT 9999 FEW032 25/15 Q1010
RORS 202300Z 01020KT 9999 FEW032 24/14 Q1010
RORS 202200Z 01021KT 9999 FEW032 SCT190 23/14 Q1010
RORS 201000Z 36022KT 9999 FEW007 SCT010 BKN025 25/23 Q1006
RORS 200900Z 36018KT 9999 SCT012 BKN100 26/24 Q1006
RORS 200800Z 35016KT 9999 SCT010 BKN080 26/24 Q1006
RORS 200700Z 34012KT 8000 -RA FEW007 SCT050 BKN070 25/25 Q1006
RORS 200613Z 31012KT 6000 -SHRA FEW007 SCT015 BKN090 24/23 Q1006 RMK 1ST007 4CU015 6AS090 A2972
RORS 200600Z 32016KT 6000 -TSRA FEW005 BKN010 FEW025CB BKN080 25/24 Q1006
RORS 200540Z 33016KT 5000 -TSRA FEW004 SCT009 FEW025CB BKN050 26/25 Q1006 RMK 2ST004 4CU009 1CB025 6SC050 A2973 FBL TS 20KM S MOV E
RORS 200522Z 32019KT 4000 R35/P2000N TSRA FEW005 SCT020 FEW025CB BKN050 25/24 Q1006 RMK 2ST005 4CU020 1CB025 6SC050 A2971 FBL TS 20KM SW MOV E
RORS 200500Z 30013KT 2000 +TSRA SCT010 BKN020 FEW025CB BKN040 25/24 Q1006
RORS 200400Z 36010KT 9999 SCT005 BKN050 29/27 Q1006
RORS 200339Z 33008KT 9999 FEW004 BKN007 BKN050 28/27 Q1006 RMK 2ST004 5ST007 6SC050 A2972
RORS 200300Z 31004KT 260V340 9000 FEW003 SCT007 BKN050 28/27 Q1006
RORS 200200Z 27004KT 230V320 9000 FEW003 SCT050 BKN070 28/27 Q1006
RORS 200100Z 22004KT 190V280 9999 FEW003 SCT080 BKN130 28/27 Q1006
RORS 200000Z 24003KT 180V310 9000 FEW003 BKN/// 28/27 Q1006
RORS 192300Z 20005KT 170V230 8000 FEW003 BKN/// 28/27 Q1005
RORS 192200Z 18004KT 160V250 6000 FEW003 BKN/// 27/27 Q1005
RORS 191000Z 17006KT 9999 FEW007 BKN/// 28/27 Q1006
RORS 190900Z 18007KT 150V230 9999 FEW007 BKN/// 29/27 Q1006
RORS 190800Z 19006KT 160V230 9999 FEW009 SCT/// 29/27 Q1006
RORS 190700Z 17009KT 140V210 9999 FEW007 SCT009 BKN090 29/27 Q1006
RORS 190600Z 15011KT 9999 FEW007 SCT110 BKN/// 29/26 Q1006
RORS 190500Z 15012KT 9999 FEW013 BKN/// 30/26 Q1007
RORS 190400Z 14012KT 9999 FEW015 BKN/// 30/26 Q1007
RORS 190300Z 15011KT 9999 FEW013 BKN/// 30/26 Q1008
RORS 190200Z 14010KT 9999 VCSH FEW019 SCT025 BKN/// 30/27 Q1008
RORS 190100Z 14006KT 120V200 9999 VCSH SCT011 BKN/// 29/26 Q1008
RORS 190000Z 07004KT 9999 VCSH FEW005 SCT008 BKN010 27/25 Q1008
RORS 182336Z 05003KT 020V090 9999 VCSH FEW003 BKN010 FEW025CB BKN070 26/25 Q1008 RMK 1ST003 5CU010 1CB025 7AC070 A2978 CB 20KM SE MOV SE
RORS 182300Z 02004KT 9999 -TSRA FEW005 SCT010 FEW025CB BKN030 26/25 Q1007